sensor_id;sensor_type;location;lat;lon;timestamp;pressure;altitude;pressure_sealevel;temperature
70415;BMP280;57837;52.064;113.478;2023-12-20T00:01:40;95806.94;;;-30.61
70415;BMP280;57837;52.064;113.478;2023-12-20T00:04:44;95804.00;;;-30.54
70415;BMP280;57837;52.064;113.478;2023-12-20T00:07:47;95810.94;;;-30.73
70415;BMP280;57837;52.064;113.478;2023-12-20T00:10:52;95812.75;;;-30.64
70415;BMP280;57837;52.064;113.478;2023-12-20T00:13:55;95821.28;;;-30.71
70415;BMP280;57837;52.064;113.478;2023-12-20T00:16:59;95830.91;;;-30.58
70415;BMP280;57837;52.064;113.478;2023-12-20T00:20:03;95828.13;;;-30.76
70415;BMP280;57837;52.064;113.478;2023-12-20T00:23:07;95825.69;;;-30.76
70415;BMP280;57837;52.064;113.478;2023-12-20T00:26:10;95808.88;;;-30.66
70415;BMP280;57837;52.064;113.478;2023-12-20T00:29:15;95814.28;;;-30.63
70415;BMP280;57837;52.064;113.478;2023-12-20T00:32:18;95826.41;;;-30.52
70415;BMP280;57837;52.064;113.478;2023-12-20T00:35:23;95833.41;;;-30.60
70415;BMP280;57837;52.064;113.478;2023-12-20T00:38:27;95829.66;;;-30.75
70415;BMP280;57837;52.064;113.478;2023-12-20T00:41:31;95843.25;;;-30.85
70415;BMP280;57837;52.064;113.478;2023-12-20T00:44:35;95852.06;;;-30.73
70415;BMP280;57837;52.064;113.478;2023-12-20T00:47:39;95849.75;;;-30.75
70415;BMP280;57837;52.064;113.478;2023-12-20T00:50:42;95845.13;;;-30.78
70415;BMP280;57837;52.064;113.478;2023-12-20T00:53:45;95845.03;;;-30.76
70415;BMP280;57837;52.064;113.478;2023-12-20T00:56:52;95834.22;;;-30.83
70415;BMP280;57837;52.064;113.478;2023-12-20T00:59:56;95824.06;;;-30.88
70415;BMP280;57837;52.064;113.478;2023-12-20T01:03:00;95823.38;;;-30.66
70415;BMP280;57837;52.064;113.478;2023-12-20T01:06:04;95822.63;;;-30.67
70415;BMP280;57837;52.064;113.478;2023-12-20T01:09:08;95822.91;;;-30.72
70415;BMP280;57837;52.064;113.478;2023-12-20T01:12:12;95820.66;;;-30.62
70415;BMP280;57837;52.064;113.478;2023-12-20T01:15:17;95814.91;;;-30.37
70415;BMP280;57837;52.064;113.478;2023-12-20T01:18:20;95827.44;;;-30.32
70415;BMP280;57837;52.064;113.478;2023-12-20T01:21:23;95823.34;;;-30.31
70415;BMP280;57837;52.064;113.478;2023-12-20T01:24:26;95834.25;;;-30.14
70415;BMP280;57837;52.064;113.478;2023-12-20T01:27:30;95834.63;;;-30.19
70415;BMP280;57837;52.064;113.478;2023-12-20T01:30:34;95832.06;;;-30.17
70415;BMP280;57837;52.064;113.478;2023-12-20T01:33:38;95829.19;;;-30.11
70415;BMP280;57837;52.064;113.478;2023-12-20T01:36:41;95828.91;;;-29.95
70415;BMP280;57837;52.064;113.478;2023-12-20T01:39:45;95826.88;;;-29.57
70415;BMP280;57837;52.064;113.478;2023-12-20T01:43:02;95820.44;;;-29.35
70415;BMP280;57837;52.064;113.478;2023-12-20T01:46:07;95825.72;;;-29.30
70415;BMP280;57837;52.064;113.478;2023-12-20T01:49:11;95820.88;;;-29.19
70415;BMP280;57837;52.064;113.478;2023-12-20T01:52:16;95823.03;;;-29.04
70415;BMP280;57837;52.064;113.478;2023-12-20T01:55:21;95818.44;;;-28.87
70415;BMP280;57837;52.064;113.478;2023-12-20T01:58:26;95821.75;;;-28.67
70415;BMP280;57837;52.064;113.478;2023-12-20T02:01:30;95804.88;;;-28.47
70415;BMP280;57837;52.064;113.478;2023-12-20T02:04:35;95815.50;;;-28.18
70415;BMP280;57837;52.064;113.478;2023-12-20T02:07:38;95806.88;;;-28.01
70415;BMP280;57837;52.064;113.478;2023-12-20T02:10:42;95824.03;;;-27.52
70415;BMP280;57837;52.064;113.478;2023-12-20T02:13:46;95814.84;;;-27.29
70415;BMP280;57837;52.064;113.478;2023-12-20T02:16:50;95820.38;;;-26.88
70415;BMP280;57837;52.064;113.478;2023-12-20T02:19:53;95821.06;;;-26.59
70415;BMP280;57837;52.064;113.478;2023-12-20T02:22:57;95817.47;;;-26.45
70415;BMP280;57837;52.064;113.478;2023-12-20T02:26:01;95805.59;;;-25.93
70415;BMP280;57837;52.064;113.478;2023-12-20T02:29:04;95809.81;;;-25.68
70415;BMP280;57837;52.064;113.478;2023-12-20T02:32:08;95820.94;;;-25.55
70415;BMP280;57837;52.064;113.478;2023-12-20T02:35:13;95810.28;;;-25.19
70415;BMP280;57837;52.064;113.478;2023-12-20T02:38:17;95810.06;;;-25.07
70415;BMP280;57837;52.064;113.478;2023-12-20T02:41:20;95811.88;;;-25.09
70415;BMP280;57837;52.064;113.478;2023-12-20T02:44:24;95811.06;;;-24.92
70415;BMP280;57837;52.064;113.478;2023-12-20T02:47:27;95804.31;;;-24.80
70415;BMP280;57837;52.064;113.478;2023-12-20T02:50:32;95802.69;;;-24.72
70415;BMP280;57837;52.064;113.478;2023-12-20T02:53:36;95793.34;;;-24.76
70415;BMP280;57837;52.064;113.478;2023-12-20T02:56:40;95793.31;;;-24.50
70415;BMP280;57837;52.064;113.478;2023-12-20T02:59:44;95796.13;;;-24.37
70415;BMP280;57837;52.064;113.478;2023-12-20T03:02:47;95793.06;;;-24.39
70415;BMP280;57837;52.064;113.478;2023-12-20T03:05:51;95791.19;;;-24.19
70415;BMP280;57837;52.064;113.478;2023-12-20T03:08:54;95786.47;;;-24.12
70415;BMP280;57837;52.064;113.478;2023-12-20T03:11:57;95775.69;;;-23.93
70415;BMP280;57837;52.064;113.478;2023-12-20T03:15:00;95782.13;;;-23.76
70415;BMP280;57837;52.064;113.478;2023-12-20T03:18:04;95794.66;;;-23.71
70415;BMP280;57837;52.064;113.478;2023-12-20T03:21:08;95779.22;;;-23.55
70415;BMP280;57837;52.064;113.478;2023-12-20T03:24:12;95775.28;;;-23.24
70415;BMP280;57837;52.064;113.478;2023-12-20T03:27:16;95784.75;;;-22.96
70415;BMP280;57837;52.064;113.478;2023-12-20T03:30:21;95771.00;;;-23.05
70415;BMP280;57837;52.064;113.478;2023-12-20T03:33:24;95769.47;;;-23.23
70415;BMP280;57837;52.064;113.478;2023-12-20T03:36:28;95777.88;;;-23.17
70415;BMP280;57837;52.064;113.478;2023-12-20T03:39:32;95778.31;;;-22.97
70415;BMP280;57837;52.064;113.478;2023-12-20T03:42:35;95770.19;;;-22.89
70415;BMP280;57837;52.064;113.478;2023-12-20T03:45:39;95761.25;;;-22.66
70415;BMP280;57837;52.064;113.478;2023-12-20T03:48:43;95762.41;;;-22.46
70415;BMP280;57837;52.064;113.478;2023-12-20T03:51:47;95765.09;;;-22.63
70415;BMP280;57837;52.064;113.478;2023-12-20T03:54:51;95763.13;;;-22.76
70415;BMP280;57837;52.064;113.478;2023-12-20T03:57:55;95756.44;;;-22.43
70415;BMP280;57837;52.064;113.478;2023-12-20T04:00:59;95742.94;;;-22.78
70415;BMP280;57837;52.064;113.478;2023-12-20T04:04:03;95748.97;;;-23.05
70415;BMP280;57837;52.064;113.478;2023-12-20T04:07:07;95747.72;;;-23.17
70415;BMP280;57837;52.064;113.478;2023-12-20T04:10:11;95749.81;;;-22.98
70415;BMP280;57837;52.064;113.478;2023-12-20T04:13:14;95745.72;;;-22.89
70415;BMP280;57837;52.064;113.478;2023-12-20T04:16:18;95745.22;;;-22.77
70415;BMP280;57837;52.064;113.478;2023-12-20T04:19:21;95741.50;;;-22.73
70415;BMP280;57837;52.064;113.478;2023-12-20T04:22:25;95744.84;;;-22.57
70415;BMP280;57837;52.064;113.478;2023-12-20T04:25:28;95746.16;;;-22.38
70415;BMP280;57837;52.064;113.478;2023-12-20T04:28:32;95749.13;;;-22.20
70415;BMP280;57837;52.064;113.478;2023-12-20T04:31:35;95737.97;;;-22.23
70415;BMP280;57837;52.064;113.478;2023-12-20T04:34:39;95726.47;;;-22.22
70415;BMP280;57837;52.064;113.478;2023-12-20T04:37:43;95723.09;;;-21.98
70415;BMP280;57837;52.064;113.478;2023-12-20T04:40:47;95716.09;;;-22.01
70415;BMP280;57837;52.064;113.478;2023-12-20T04:43:50;95711.38;;;-21.88
70415;BMP280;57837;52.064;113.478;2023-12-20T04:46:54;95704.06;;;-21.73
70415;BMP280;57837;52.064;113.478;2023-12-20T04:49:59;95698.50;;;-21.67
70415;BMP280;57837;52.064;113.478;2023-12-20T04:53:04;95700.25;;;-21.76
70415;BMP280;57837;52.064;113.478;2023-12-20T04:56:07;95692.38;;;-21.71
70415;BMP280;57837;52.064;113.478;2023-12-20T04:59:11;95693.94;;;-21.55
70415;BMP280;57837;52.064;113.478;2023-12-20T05:02:14;95690.47;;;-21.61
70415;BMP280;57837;52.064;113.478;2023-12-20T05:05:17;95682.75;;;-21.58
70415;BMP280;57837;52.064;113.478;2023-12-20T05:08:21;95692.44;;;-21.42
70415;BMP280;57837;52.064;113.478;2023-12-20T05:11:25;95690.00;;;-21.42
70415;BMP280;57837;52.064;113.478;2023-12-20T05:14:28;95691.50;;;-21.55
70415;BMP280;57837;52.064;113.478;2023-12-20T05:17:31;95685.56;;;-21.46
70415;BMP280;57837;52.064;113.478;2023-12-20T05:20:36;95683.13;;;-21.31
70415;BMP280;57837;52.064;113.478;2023-12-20T05:23:40;95678.91;;;-21.23
70415;BMP280;57837;52.064;113.478;2023-12-20T05:26:44;95677.91;;;-21.13
70415;BMP280;57837;52.064;113.478;2023-12-20T05:29:47;95676.88;;;-20.90
70415;BMP280;57837;52.064;113.478;2023-12-20T05:32:51;95669.97;;;-20.79
70415;BMP280;57837;52.064;113.478;2023-12-20T05:35:55;95669.28;;;-20.58
70415;BMP280;57837;52.064;113.478;2023-12-20T05:38:59;95658.69;;;-20.59
70415;BMP280;57837;52.064;113.478;2023-12-20T05:42:02;95663.97;;;-20.41
70415;BMP280;57837;52.064;113.478;2023-12-20T05:45:06;95661.00;;;-20.36
70415;BMP280;57837;52.064;113.478;2023-12-20T05:48:10;95665.06;;;-20.22
70415;BMP280;57837;52.064;113.478;2023-12-20T05:51:14;95666.16;;;-20.09
70415;BMP280;57837;52.064;113.478;2023-12-20T05:54:18;95653.13;;;-20.03
70415;BMP280;57837;52.064;113.478;2023-12-20T05:57:22;95645.59;;;-20.02
70415;BMP280;57837;52.064;113.478;2023-12-20T06:00:26;95634.03;;;-20.01
70415;BMP280;57837;52.064;113.478;2023-12-20T06:03:29;95649.75;;;-19.96
70415;BMP280;57837;52.064;113.478;2023-12-20T06:06:33;95634.81;;;-19.94
70415;BMP280;57837;52.064;113.478;2023-12-20T06:09:37;95635.50;;;-20.07
70415;BMP280;57837;52.064;113.478;2023-12-20T06:12:41;95629.28;;;-20.03
70415;BMP280;57837;52.064;113.478;2023-12-20T06:15:46;95639.13;;;-20.03
70415;BMP280;57837;52.064;113.478;2023-12-20T06:18:49;95638.22;;;-19.95
70415;BMP280;57837;52.064;113.478;2023-12-20T06:21:54;95631.31;;;-19.85
70415;BMP280;57837;52.064;113.478;2023-12-20T06:24:58;95631.31;;;-19.85
70415;BMP280;57837;52.064;113.478;2023-12-20T06:28:02;95637.13;;;-19.93
70415;BMP280;57837;52.064;113.478;2023-12-20T06:31:06;95639.72;;;-19.94
70415;BMP280;57837;52.064;113.478;2023-12-20T06:34:09;95632.63;;;-19.82
70415;BMP280;57837;52.064;113.478;2023-12-20T06:37:13;95642.91;;;-19.72
70415;BMP280;57837;52.064;113.478;2023-12-20T06:40:18;95641.91;;;-19.56
70415;BMP280;57837;52.064;113.478;2023-12-20T06:43:22;95644.09;;;-19.40
70415;BMP280;57837;52.064;113.478;2023-12-20T06:46:44;95632.75;;;-19.28
70415;BMP280;57837;52.064;113.478;2023-12-20T06:49:48;95637.34;;;-19.25
70415;BMP280;57837;52.064;113.478;2023-12-20T06:52:51;95637.38;;;-19.12
70415;BMP280;57837;52.064;113.478;2023-12-20T06:55:56;95631.56;;;-18.97
70415;BMP280;57837;52.064;113.478;2023-12-20T06:59:00;95639.75;;;-18.90
70415;BMP280;57837;52.064;113.478;2023-12-20T07:02:03;95623.09;;;-18.75
70415;BMP280;57837;52.064;113.478;2023-12-20T07:05:17;95627.09;;;-18.61
70415;BMP280;57837;52.064;113.478;2023-12-20T07:08:23;95629.56;;;-18.61
70415;BMP280;57837;52.064;113.478;2023-12-20T07:11:27;95630.72;;;-18.50
70415;BMP280;57837;52.064;113.478;2023-12-20T07:14:30;95630.72;;;-18.50
70415;BMP280;57837;52.064;113.478;2023-12-20T07:17:34;95633.75;;;-18.55
70415;BMP280;57837;52.064;113.478;2023-12-20T07:20:37;95628.06;;;-18.55
70415;BMP280;57837;52.064;113.478;2023-12-20T07:23:41;95622.16;;;-18.54
70415;BMP280;57837;52.064;113.478;2023-12-20T07:26:45;95625.59;;;-18.55
70415;BMP280;57837;52.064;113.478;2023-12-20T07:29:49;95631.47;;;-18.56
70415;BMP280;57837;52.064;113.478;2023-12-20T07:32:52;95622.16;;;-18.61
70415;BMP280;57837;52.064;113.478;2023-12-20T07:35:55;95620.06;;;-18.64
70415;BMP280;57837;52.064;113.478;2023-12-20T07:38:59;95621.97;;;-18.59
70415;BMP280;57837;52.064;113.478;2023-12-20T07:42:03;95618.75;;;-18.60
70415;BMP280;57837;52.064;113.478;2023-12-20T07:45:07;95625.97;;;-18.58
70415;BMP280;57837;52.064;113.478;2023-12-20T07:48:10;95620.84;;;-18.57
70415;BMP280;57837;52.064;113.478;2023-12-20T07:51:14;95632.59;;;-18.59
70415;BMP280;57837;52.064;113.478;2023-12-20T07:54:17;95630.91;;;-18.58
70415;BMP280;57837;52.064;113.478;2023-12-20T07:57:23;95630.69;;;-18.63
70415;BMP280;57837;52.064;113.478;2023-12-20T08:00:27;95631.25;;;-18.74
70415;BMP280;57837;52.064;113.478;2023-12-20T08:03:31;95635.19;;;-18.87
70415;BMP280;57837;52.064;113.478;2023-12-20T08:06:35;95634.22;;;-18.99
70415;BMP280;57837;52.064;113.478;2023-12-20T08:09:38;95634.69;;;-19.17
70415;BMP280;57837;52.064;113.478;2023-12-20T08:12:41;95640.66;;;-19.39
70415;BMP280;57837;52.064;113.478;2023-12-20T08:15:45;95642.03;;;-19.65
70415;BMP280;57837;52.064;113.478;2023-12-20T08:18:50;95650.28;;;-19.79
70415;BMP280;57837;52.064;113.478;2023-12-20T08:21:54;95653.50;;;-19.78
70415;BMP280;57837;52.064;113.478;2023-12-20T08:24:57;95640.56;;;-19.87
70415;BMP280;57837;52.064;113.478;2023-12-20T08:28:02;95649.44;;;-19.93
70415;BMP280;57837;52.064;113.478;2023-12-20T08:31:05;95658.50;;;-19.93
70415;BMP280;57837;52.064;113.478;2023-12-20T08:34:10;95658.75;;;-20.09
70415;BMP280;57837;52.064;113.478;2023-12-20T08:37:15;95658.13;;;-20.18
70415;BMP280;57837;52.064;113.478;2023-12-20T08:40:19;95663.91;;;-20.26
70415;BMP280;57837;52.064;113.478;2023-12-20T08:43:23;95668.00;;;-20.33
70415;BMP280;57837;52.064;113.478;2023-12-20T08:46:28;95661.75;;;-20.72
70415;BMP280;57837;52.064;113.478;2023-12-20T08:49:31;95670.94;;;-21.10
70415;BMP280;57837;52.064;113.478;2023-12-20T08:52:36;95669.94;;;-21.16
70415;BMP280;57837;52.064;113.478;2023-12-20T08:55:39;95667.81;;;-21.19
70415;BMP280;57837;52.064;113.478;2023-12-20T08:58:45;95668.16;;;-21.22
70415;BMP280;57837;52.064;113.478;2023-12-20T09:01:49;95669.69;;;-21.21
70415;BMP280;57837;52.064;113.478;2023-12-20T09:04:57;95674.75;;;-21.22
70415;BMP280;57837;52.064;113.478;2023-12-20T09:08:00;95683.56;;;-21.13
70415;BMP280;57837;52.064;113.478;2023-12-20T09:11:03;95680.44;;;-21.07
70415;BMP280;57837;52.064;113.478;2023-12-20T09:14:07;95679.28;;;-21.11
70415;BMP280;57837;52.064;113.478;2023-12-20T09:17:10;95679.00;;;-21.16
70415;BMP280;57837;52.064;113.478;2023-12-20T09:20:15;95676.56;;;-21.16
70415;BMP280;57837;52.064;113.478;2023-12-20T09:23:19;95669.00;;;-21.00
70415;BMP280;57837;52.064;113.478;2023-12-20T09:26:23;95661.69;;;-20.93
70415;BMP280;57837;52.064;113.478;2023-12-20T09:29:27;95674.00;;;-20.93
70415;BMP280;57837;52.064;113.478;2023-12-20T09:32:31;95665.00;;;-21.01
70415;BMP280;57837;52.064;113.478;2023-12-20T09:35:35;95659.94;;;-21.14
70415;BMP280;57837;52.064;113.478;2023-12-20T09:38:39;95669.34;;;-21.18
70415;BMP280;57837;52.064;113.478;2023-12-20T09:41:43;95668.31;;;-21.23
70415;BMP280;57837;52.064;113.478;2023-12-20T09:44:50;95662.28;;;-21.35
70415;BMP280;57837;52.064;113.478;2023-12-20T09:47:54;95654.84;;;-21.57
70415;BMP280;57837;52.064;113.478;2023-12-20T09:50:58;95656.94;;;-21.54
70415;BMP280;57837;52.064;113.478;2023-12-20T09:54:03;95666.94;;;-21.55
70415;BMP280;57837;52.064;113.478;2023-12-20T09:57:09;95668.31;;;-21.53
70415;BMP280;57837;52.064;113.478;2023-12-20T10:00:16;95662.47;;;-21.37
70415;BMP280;57837;52.064;113.478;2023-12-20T10:03:25;95663.75;;;-21.26
70415;BMP280;57837;52.064;113.478;2023-12-20T10:06:32;95660.41;;;-21.33
70415;BMP280;57837;52.064;113.478;2023-12-20T10:09:37;95656.88;;;-21.31
70415;BMP280;57837;52.064;113.478;2023-12-20T10:13:10;95659.59;;;-21.26
70415;BMP280;57837;52.064;113.478;2023-12-20T10:16:13;95656.03;;;-21.23
70415;BMP280;57837;52.064;113.478;2023-12-20T10:19:17;95644.69;;;-21.24
70415;BMP280;57837;52.064;113.478;2023-12-20T10:22:22;95657.66;;;-21.16
70415;BMP280;57837;52.064;113.478;2023-12-20T10:25:25;95652.97;;;-21.10
70415;BMP280;57837;52.064;113.478;2023-12-20T10:28:34;95654.16;;;-21.06
70415;BMP280;57837;52.064;113.478;2023-12-20T10:31:38;95649.81;;;-21.04
70415;BMP280;57837;52.064;113.478;2023-12-20T10:34:42;95654.84;;;-20.98
70415;BMP280;57837;52.064;113.478;2023-12-20T10:37:46;95654.94;;;-20.91
70415;BMP280;57837;52.064;113.478;2023-12-20T10:40:56;95649.53;;;-20.80
70415;BMP280;57837;52.064;113.478;2023-12-20T10:44:05;95651.66;;;-20.77
70415;BMP280;57837;52.064;113.478;2023-12-20T10:47:14;95656.34;;;-20.82
70415;BMP280;57837;52.064;113.478;2023-12-20T10:50:23;95663.63;;;-20.74
70415;BMP280;57837;52.064;113.478;2023-12-20T10:53:30;95651.66;;;-20.62
70415;BMP280;57837;52.064;113.478;2023-12-20T10:56:40;95661.38;;;-20.54
70415;BMP280;57837;52.064;113.478;2023-12-20T10:59:50;95672.56;;;-20.51
70415;BMP280;57837;52.064;113.478;2023-12-20T11:02:56;95660.22;;;-20.58
70415;BMP280;57837;52.064;113.478;2023-12-20T11:06:31;95669.72;;;-20.70
70415;BMP280;57837;52.064;113.478;2023-12-20T11:09:45;95666.50;;;-20.70
70415;BMP280;57837;52.064;113.478;2023-12-20T11:12:57;95675.31;;;-20.76
70415;BMP280;57837;52.064;113.478;2023-12-20T11:16:03;95677.69;;;-20.82
70415;BMP280;57837;52.064;113.478;2023-12-20T11:19:08;95674.47;;;-20.83
70415;BMP280;57837;52.064;113.478;2023-12-20T11:22:14;95684.56;;;-20.78
70415;BMP280;57837;52.064;113.478;2023-12-20T11:25:19;95680.75;;;-20.80
70415;BMP280;57837;52.064;113.478;2023-12-20T11:28:24;95686.41;;;-20.80
70415;BMP280;57837;52.064;113.478;2023-12-20T11:31:40;95683.38;;;-20.82
70415;BMP280;57837;52.064;113.478;2023-12-20T11:34:43;95682.88;;;-20.92
70415;BMP280;57837;52.064;113.478;2023-12-20T11:37:48;95685.19;;;-20.91
70415;BMP280;57837;52.064;113.478;2023-12-20T11:40:54;95687.97;;;-20.94
70415;BMP280;57837;52.064;113.478;2023-12-20T11:43:59;95691.13;;;-21.00
70415;BMP280;57837;52.064;113.478;2023-12-20T11:47:04;95696.94;;;-21.01
70415;BMP280;57837;52.064;113.478;2023-12-20T11:50:08;95697.03;;;-21.09
70415;BMP280;57837;52.064;113.478;2023-12-20T11:53:12;95694.25;;;-21.21
70415;BMP280;57837;52.064;113.478;2023-12-20T11:56:16;95692.28;;;-21.25
70415;BMP280;57837;52.064;113.478;2023-12-20T11:59:20;95694.41;;;-21.22
70415;BMP280;57837;52.064;113.478;2023-12-20T12:02:25;95695.25;;;-21.30
70415;BMP280;57837;52.064;113.478;2023-12-20T12:05:31;95697.72;;;-21.45
70415;BMP280;57837;52.064;113.478;2023-12-20T12:08:36;95690.50;;;-21.46
70415;BMP280;57837;52.064;113.478;2023-12-20T12:11:40;95698.97;;;-21.49
70415;BMP280;57837;52.064;113.478;2023-12-20T12:14:44;95685.81;;;-21.56
70415;BMP280;57837;52.064;113.478;2023-12-20T12:17:55;95687.91;;;-21.68
70415;BMP280;57837;52.064;113.478;2023-12-20T12:21:01;95695.19;;;-21.59
70415;BMP280;57837;52.064;113.478;2023-12-20T12:24:14;95699.25;;;-21.67
70415;BMP280;57837;52.064;113.478;2023-12-20T12:27:18;95697.97;;;-21.62
70415;BMP280;57837;52.064;113.478;2023-12-20T12:30:22;95701.44;;;-21.72
70415;BMP280;57837;52.064;113.478;2023-12-20T12:33:26;95698.44;;;-21.82
70415;BMP280;57837;52.064;113.478;2023-12-20T12:36:31;95702.00;;;-21.84
70415;BMP280;57837;52.064;113.478;2023-12-20T12:39:36;95693.38;;;-21.80
70415;BMP280;57837;52.064;113.478;2023-12-20T12:42:41;95690.94;;;-21.66
70415;BMP280;57837;52.064;113.478;2023-12-20T12:45:46;95695.97;;;-21.59
70415;BMP280;57837;52.064;113.478;2023-12-20T12:48:50;95699.34;;;-21.60
70415;BMP280;57837;52.064;113.478;2023-12-20T12:51:54;95692.25;;;-21.55
70415;BMP280;57837;52.064;113.478;2023-12-20T12:55:01;95694.00;;;-21.63
70415;BMP280;57837;52.064;113.478;2023-12-20T12:58:07;95691.38;;;-21.62
70415;BMP280;57837;52.064;113.478;2023-12-20T13:01:11;95697.97;;;-21.62
70415;BMP280;57837;52.064;113.478;2023-12-20T13:04:15;95698.91;;;-21.63
70415;BMP280;57837;52.064;113.478;2023-12-20T13:07:18;95696.56;;;-21.57
70415;BMP280;57837;52.064;113.478;2023-12-20T13:10:23;95694.22;;;-21.50
70415;BMP280;57837;52.064;113.478;2023-12-20T13:13:27;95693.44;;;-21.51
70415;BMP280;57837;52.064;113.478;2023-12-20T13:16:32;95704.03;;;-21.50
70415;BMP280;57837;52.064;113.478;2023-12-20T13:19:37;95703.44;;;-21.52
70415;BMP280;57837;52.064;113.478;2023-12-20T13:22:41;95703.16;;;-21.57
70415;BMP280;57837;52.064;113.478;2023-12-20T13:25:46;95701.63;;;-21.58
70415;BMP280;57837;52.064;113.478;2023-12-20T13:28:50;95716.44;;;-21.67
70415;BMP280;57837;52.064;113.478;2023-12-20T13:31:54;95714.94;;;-21.68
70415;BMP280;57837;52.064;113.478;2023-12-20T13:34:58;95709.91;;;-21.74
70415;BMP280;57837;52.064;113.478;2023-12-20T13:38:03;95705.28;;;-21.69
70415;BMP280;57837;52.064;113.478;2023-12-20T13:41:07;95698.50;;;-21.67
70415;BMP280;57837;52.064;113.478;2023-12-20T13:44:10;95702.22;;;-21.71
70415;BMP280;57837;52.064;113.478;2023-12-20T13:47:15;95699.63;;;-21.70
70415;BMP280;57837;52.064;113.478;2023-12-20T13:50:19;95713.41;;;-21.69
70415;BMP280;57837;52.064;113.478;2023-12-20T13:53:23;95702.31;;;-21.64
70415;BMP280;57837;52.064;113.478;2023-12-20T13:56:27;95701.72;;;-21.67
70415;BMP280;57837;52.064;113.478;2023-12-20T13:59:31;95697.16;;;-21.70
70415;BMP280;57837;52.064;113.478;2023-12-20T14:02:38;95690.75;;;-21.79
70415;BMP280;57837;52.064;113.478;2023-12-20T14:05:44;95687.66;;;-21.73
70415;BMP280;57837;52.064;113.478;2023-12-20T14:08:48;95689.81;;;-21.78
70415;BMP280;57837;52.064;113.478;2023-12-20T14:11:55;95695.50;;;-21.77
70415;BMP280;57837;52.064;113.478;2023-12-20T14:15:08;95694.78;;;-21.86
70415;BMP280;57837;52.064;113.478;2023-12-20T14:18:23;95707.13;;;-21.94
70415;BMP280;57837;52.064;113.478;2023-12-20T14:21:28;95698.91;;;-22.01
70415;BMP280;57837;52.064;113.478;2023-12-20T14:24:32;95694.81;;;-22.09
70415;BMP280;57837;52.064;113.478;2023-12-20T14:27:36;95698.34;;;-22.11
70415;BMP280;57837;52.064;113.478;2023-12-20T14:30:41;95699.66;;;-22.01
70415;BMP280;57837;52.064;113.478;2023-12-20T14:33:46;95696.72;;;-21.96
70415;BMP280;57837;52.064;113.478;2023-12-20T14:36:53;95690.00;;;-22.02
70415;BMP280;57837;52.064;113.478;2023-12-20T14:39:59;95686.72;;;-21.95
70415;BMP280;57837;52.064;113.478;2023-12-20T14:43:05;95685.22;;;-21.96
70415;BMP280;57837;52.064;113.478;2023-12-20T14:46:19;95690.22;;;-21.89
70415;BMP280;57837;52.064;113.478;2023-12-20T14:49:23;95698.34;;;-21.88
70415;BMP280;57837;52.064;113.478;2023-12-20T14:52:28;95703.25;;;-21.88
70415;BMP280;57837;52.064;113.478;2023-12-20T14:55:34;95690.22;;;-21.89
70415;BMP280;57837;52.064;113.478;2023-12-20T14:58:38;95701.13;;;-21.92
70415;BMP280;57837;52.064;113.478;2023-12-20T15:01:43;95702.00;;;-22.07
70415;BMP280;57837;52.064;113.478;2023-12-20T15:04:47;95700.25;;;-21.99
70415;BMP280;57837;52.064;113.478;2023-12-20T15:07:51;95684.00;;;-22.00
70415;BMP280;57837;52.064;113.478;2023-12-20T15:10:56;95694.47;;;-22.06
70415;BMP280;57837;52.064;113.478;2023-12-20T15:14:00;95698.28;;;-22.03
70415;BMP280;57837;52.064;113.478;2023-12-20T15:17:04;95694.81;;;-22.09
70415;BMP280;57837;52.064;113.478;2023-12-20T15:20:12;95693.31;;;-22.18
70415;BMP280;57837;52.064;113.478;2023-12-20T15:23:16;95698.91;;;-22.24
70415;BMP280;57837;52.064;113.478;2023-12-20T15:26:20;95691.41;;;-22.31
70415;BMP280;57837;52.064;113.478;2023-12-20T15:29:24;95697.84;;;-22.30
70415;BMP280;57837;52.064;113.478;2023-12-20T15:32:29;95696.94;;;-22.29
70415;BMP280;57837;52.064;113.478;2023-12-20T15:35:33;95696.59;;;-22.26
70415;BMP280;57837;52.064;113.478;2023-12-20T15:38:36;95687.88;;;-22.28
70415;BMP280;57837;52.064;113.478;2023-12-20T15:41:40;95695.72;;;-22.10
70415;BMP280;57837;52.064;113.478;2023-12-20T15:44:44;95696.38;;;-22.16
70415;BMP280;57837;52.064;113.478;2023-12-20T15:47:49;95696.84;;;-22.21
70415;BMP280;57837;52.064;113.478;2023-12-20T15:50:52;95690.31;;;-22.28
70415;BMP280;57837;52.064;113.478;2023-12-20T15:53:56;95694.47;;;-22.29
70415;BMP280;57837;52.064;113.478;2023-12-20T15:57:00;95699.38;;;-22.29
70415;BMP280;57837;52.064;113.478;2023-12-20T16:00:05;95685.75;;;-22.31
70415;BMP280;57837;52.064;113.478;2023-12-20T16:03:10;95689.88;;;-22.32
70415;BMP280;57837;52.064;113.478;2023-12-20T16:06:26;95694.34;;;-22.35
70415;BMP280;57837;52.064;113.478;2023-12-20T16:09:30;95700.91;;;-22.28
70415;BMP280;57837;52.064;113.478;2023-12-20T16:12:33;95711.94;;;-22.32
70415;BMP280;57837;52.064;113.478;2023-12-20T16:15:37;95705.34;;;-22.31
70415;BMP280;57837;52.064;113.478;2023-12-20T16:18:41;95715.97;;;-22.39
70415;BMP280;57837;52.064;113.478;2023-12-20T16:21:45;95711.38;;;-22.42
70415;BMP280;57837;52.064;113.478;2023-12-20T16:24:48;95714.25;;;-22.38
70415;BMP280;57837;52.064;113.478;2023-12-20T16:27:52;95723.47;;;-22.32
70415;BMP280;57837;52.064;113.478;2023-12-20T16:30:56;95715.16;;;-22.31
70415;BMP280;57837;52.064;113.478;2023-12-20T16:34:00;95720.56;;;-22.36
70415;BMP280;57837;52.064;113.478;2023-12-20T16:37:08;95734.38;;;-22.43
70415;BMP280;57837;52.064;113.478;2023-12-20T16:40:12;95729.59;;;-22.36
70415;BMP280;57837;52.064;113.478;2023-12-20T16:43:16;95732.16;;;-22.30
70415;BMP280;57837;52.064;113.478;2023-12-20T16:46:20;95719.31;;;-22.32
70415;BMP280;57837;52.064;113.478;2023-12-20T16:49:24;95720.34;;;-22.26
70415;BMP280;57837;52.064;113.478;2023-12-20T16:52:28;95730.63;;;-22.31
70415;BMP280;57837;52.064;113.478;2023-12-20T16:55:32;95726.97;;;-22.35
70415;BMP280;57837;52.064;113.478;2023-12-20T16:58:37;95728.16;;;-22.23